sensor_id;sensor_type;location;lat;lon;timestamp;temperature;humidity
5164;DHT22;2601;50.224;10.126;2022-12-07T04:10:43;2.10;99.90
5164;DHT22;2601;50.224;10.126;2022-12-07T04:13:09;2.20;99.90
5164;DHT22;2601;50.224;10.126;2022-12-07T04:15:35;2.30;99.90
5164;DHT22;2601;50.224;10.126;2022-12-07T04:18:00;2.40;99.90
5164;DHT22;2601;50.224;10.126;2022-12-07T04:20:26;2.40;99.90
5164;DHT22;2601;50.224;10.126;2022-12-07T04:22:52;2.50;99.90
5164;DHT22;2601;50.224;10.126;2022-12-07T04:25:17;2.40;99.90
5164;DHT22;2601;50.224;10.126;2022-12-07T04:27:43;2.40;99.90
5164;DHT22;2601;50.224;10.126;2022-12-07T04:30:09;2.40;99.90
5164;DHT22;2601;50.224;10.126;2022-12-07T04:32:35;2.40;99.90
5164;DHT22;2601;50.224;10.126;2022-12-07T04:35:01;2.40;99.90
5164;DHT22;2601;50.224;10.126;2022-12-07T04:37:26;2.40;99.90
5164;DHT22;2601;50.224;10.126;2022-12-07T04:39:52;2.40;99.90
5164;DHT22;2601;50.224;10.126;2022-12-07T04:42:18;2.40;99.90
5164;DHT22;2601;50.224;10.126;2022-12-07T04:44:43;2.40;99.90
5164;DHT22;2601;50.224;10.126;2022-12-07T04:47:10;2.40;99.90
5164;DHT22;2601;50.224;10.126;2022-12-07T04:49:35;2.40;99.90
5164;DHT22;2601;50.224;10.126;2022-12-07T04:52:01;2.40;99.90
5164;DHT22;2601;50.224;10.126;2022-12-07T04:54:27;2.50;99.90
5164;DHT22;2601;50.224;10.126;2022-12-07T04:56:53;2.50;99.90
5164;DHT22;2601;50.224;10.126;2022-12-07T04:59:18;2.50;99.90
5164;DHT22;2601;50.224;10.126;2022-12-07T05:01:44;2.50;99.90
5164;DHT22;2601;50.224;10.126;2022-12-07T05:04:10;2.60;99.90
5164;DHT22;2601;50.224;10.126;2022-12-07T05:06:35;2.60;99.90
5164;DHT22;2601;50.224;10.126;2022-12-07T05:09:02;2.60;99.90
5164;DHT22;2601;50.224;10.126;2022-12-07T05:11:27;2.60;99.90
5164;DHT22;2601;50.224;10.126;2022-12-07T05:14:17;2.60;99.90
5164;DHT22;2601;50.224;10.126;2022-12-07T05:16:44;2.60;99.90
5164;DHT22;2601;50.224;10.126;2022-12-07T05:19:11;2.70;99.90
5164;DHT22;2601;50.224;10.126;2022-12-07T05:21:37;2.60;99.90
5164;DHT22;2601;50.224;10.126;2022-12-07T05:24:04;2.60;99.90
5164;DHT22;2601;50.224;10.126;2022-12-07T05:26:30;2.60;99.90
5164;DHT22;2601;50.224;10.126;2022-12-07T05:28:57;2.60;99.90
5164;DHT22;2601;50.224;10.126;2022-12-07T05:31:24;2.60;99.90
5164;DHT22;2601;50.224;10.126;2022-12-07T05:33:50;2.70;99.90
5164;DHT22;2601;50.224;10.126;2022-12-07T05:36:16;2.70;99.90
5164;DHT22;2601;50.224;10.126;2022-12-07T05:38:42;2.60;99.90
5164;DHT22;2601;50.224;10.126;2022-12-07T05:41:09;2.70;99.90
5164;DHT22;2601;50.224;10.126;2022-12-07T05:43:57;2.70;99.90
5164;DHT22;2601;50.224;10.126;2022-12-07T05:46:23;2.70;99.90
5164;DHT22;2601;50.224;10.126;2022-12-07T05:48:49;2.80;99.90
5164;DHT22;2601;50.224;10.126;2022-12-07T05:51:14;2.80;99.90
5164;DHT22;2601;50.224;10.126;2022-12-07T05:53:40;2.80;99.90
5164;DHT22;2601;50.224;10.126;2022-12-07T05:56:06;2.80;99.90
5164;DHT22;2601;50.224;10.126;2022-12-07T05:58:32;2.80;99.90
5164;DHT22;2601;50.224;10.126;2022-12-07T06:01:16;2.80;99.90
5164;DHT22;2601;50.224;10.126;2022-12-07T06:03:42;2.80;99.90
5164;DHT22;2601;50.224;10.126;2022-12-07T06:06:07;2.80;99.90
5164;DHT22;2601;50.224;10.126;2022-12-07T06:08:33;2.80;99.90
5164;DHT22;2601;50.224;10.126;2022-12-07T06:10:59;2.90;99.90
5164;DHT22;2601;50.224;10.126;2022-12-07T06:13:43;2.90;99.90
5164;DHT22;2601;50.224;10.126;2022-12-07T06:16:08;2.90;99.90
5164;DHT22;2601;50.224;10.126;2022-12-07T06:18:34;2.90;99.90
5164;DHT22;2601;50.224;10.126;2022-12-07T06:21:00;2.90;99.90
5164;DHT22;2601;50.224;10.126;2022-12-07T15:34:43;3.40;99.90
5164;DHT22;2601;50.224;10.126;2022-12-07T15:37:08;3.40;99.90
5164;DHT22;2601;50.224;10.126;2022-12-07T15:39:36;3.50;99.90
5164;DHT22;2601;50.224;10.126;2022-12-07T15:42:02;3.50;99.90
5164;DHT22;2601;50.224;10.126;2022-12-07T15:44:28;3.60;99.90
5164;DHT22;2601;50.224;10.126;2022-12-07T15:47:12;3.50;99.90
5164;DHT22;2601;50.224;10.126;2022-12-07T15:49:37;3.50;99.90
5164;DHT22;2601;50.224;10.126;2022-12-07T15:52:03;3.60;99.90
5164;DHT22;2601;50.224;10.126;2022-12-07T15:54:30;3.60;99.90
5164;DHT22;2601;50.224;10.126;2022-12-07T15:56:57;3.60;99.90
5164;DHT22;2601;50.224;10.126;2022-12-07T15:59:23;3.60;99.90
5164;DHT22;2601;50.224;10.126;2022-12-07T16:01:50;3.50;99.90
5164;DHT22;2601;50.224;10.126;2022-12-07T16:04:16;3.50;99.90
5164;DHT22;2601;50.224;10.126;2022-12-07T16:06:42;3.50;99.90
5164;DHT22;2601;50.224;10.126;2022-12-07T16:09:08;3.40;99.90
5164;DHT22;2601;50.224;10.126;2022-12-07T16:11:34;3.50;99.90
5164;DHT22;2601;50.224;10.126;2022-12-07T16:14:00;3.40;99.90
5164;DHT22;2601;50.224;10.126;2022-12-07T16:16:26;3.40;99.90
5164;DHT22;2601;50.224;10.126;2022-12-07T16:18:52;3.30;99.90
5164;DHT22;2601;50.224;10.126;2022-12-07T16:21:18;3.20;99.90
5164;DHT22;2601;50.224;10.126;2022-12-07T16:23:44;3.30;99.90
5164;DHT22;2601;50.224;10.126;2022-12-07T16:26:15;3.20;99.90
5164;DHT22;2601;50.224;10.126;2022-12-07T16:28:42;3.30;99.90
5164;DHT22;2601;50.224;10.126;2022-12-07T16:31:11;3.30;99.90
5164;DHT22;2601;50.224;10.126;2022-12-07T16:33:39;3.30;99.90
5164;DHT22;2601;50.224;10.126;2022-12-07T16:36:06;3.20;99.90
5164;DHT22;2601;50.224;10.126;2022-12-07T16:38:33;3.30;99.90
5164;DHT22;2601;50.224;10.126;2022-12-07T16:40:59;3.30;99.90
5164;DHT22;2601;50.224;10.126;2022-12-07T16:43:25;3.30;99.90
5164;DHT22;2601;50.224;10.126;2022-12-07T16:45:51;3.20;99.90
5164;DHT22;2601;50.224;10.126;2022-12-07T16:48:17;3.20;99.90
5164;DHT22;2601;50.224;10.126;2022-12-07T16:50:44;3.20;99.90
5164;DHT22;2601;50.224;10.126;2022-12-07T16:53:11;3.10;99.90
5164;DHT22;2601;50.224;10.126;2022-12-07T16:55:48;3.10;99.90
5164;DHT22;2601;50.224;10.126;2022-12-07T16:58:15;3.20;99.90
5164;DHT22;2601;50.224;10.126;2022-12-07T17:00:42;3.10;99.90
5164;DHT22;2601;50.224;10.126;2022-12-07T17:03:08;3.10;99.90
5164;DHT22;2601;50.224;10.126;2022-12-07T17:05:38;3.10;99.90
5164;DHT22;2601;50.224;10.126;2022-12-07T17:08:04;3.10;99.90
5164;DHT22;2601;50.224;10.126;2022-12-07T17:10:29;3.10;99.90
5164;DHT22;2601;50.224;10.126;2022-12-07T17:12:55;3.00;99.90
5164;DHT22;2601;50.224;10.126;2022-12-07T17:15:21;3.00;99.90
5164;DHT22;2601;50.224;10.126;2022-12-07T17:17:55;3.00;99.90
5164;DHT22;2601;50.224;10.126;2022-12-07T17:20:23;3.10;99.90
5164;DHT22;2601;50.224;10.126;2022-12-07T17:22:49;3.00;99.90
5164;DHT22;2601;50.224;10.126;2022-12-07T17:25:15;3.00;99.90
5164;DHT22;2601;50.224;10.126;2022-12-07T17:27:42;3.00;99.90
5164;DHT22;2601;50.224;10.126;2022-12-07T17:30:08;3.00;99.90
5164;DHT22;2601;50.224;10.126;2022-12-07T17:32:34;3.00;99.90
5164;DHT22;2601;50.224;10.126;2022-12-07T17:35:00;3.00;99.90
5164;DHT22;2601;50.224;10.126;2022-12-07T17:37:26;2.90;99.90
5164;DHT22;2601;50.224;10.126;2022-12-07T17:39:52;3.10;99.90
5164;DHT22;2601;50.224;10.126;2022-12-07T17:42:24;3.00;99.90
5164;DHT22;2601;50.224;10.126;2022-12-07T17:45:03;3.00;99.90
5164;DHT22;2601;50.224;10.126;2022-12-07T17:47:30;2.90;99.90
5164;DHT22;2601;50.224;10.126;2022-12-07T17:49:55;2.90;99.90
5164;DHT22;2601;50.224;10.126;2022-12-07T17:52:21;2.90;99.90
5164;DHT22;2601;50.224;10.126;2022-12-07T17:55:06;2.90;99.90
5164;DHT22;2601;50.224;10.126;2022-12-07T17:57:32;2.90;99.90
5164;DHT22;2601;50.224;10.126;2022-12-07T17:59:58;2.80;99.90
5164;DHT22;2601;50.224;10.126;2022-12-07T18:02:23;2.80;99.90
5164;DHT22;2601;50.224;10.126;2022-12-07T18:04:49;2.80;99.90
5164;DHT22;2601;50.224;10.126;2022-12-07T18:07:15;2.80;99.90
5164;DHT22;2601;50.224;10.126;2022-12-07T18:09:41;2.80;99.90
5164;DHT22;2601;50.224;10.126;2022-12-07T18:12:07;2.80;99.90
5164;DHT22;2601;50.224;10.126;2022-12-07T18:14:33;2.70;99.90
5164;DHT22;2601;50.224;10.126;2022-12-07T18:16:59;2.70;99.90
5164;DHT22;2601;50.224;10.126;2022-12-07T18:19:25;2.70;99.90
5164;DHT22;2601;50.224;10.126;2022-12-07T18:21:51;2.70;99.90
5164;DHT22;2601;50.224;10.126;2022-12-07T18:24:18;2.70;99.90
5164;DHT22;2601;50.224;10.126;2022-12-07T18:26:45;2.70;99.90
5164;DHT22;2601;50.224;10.126;2022-12-07T18:29:14;2.70;99.90
5164;DHT22;2601;50.224;10.126;2022-12-07T18:31:40;2.70;99.90
5164;DHT22;2601;50.224;10.126;2022-12-07T18:34:09;2.60;99.90
5164;DHT22;2601;50.224;10.126;2022-12-07T18:36:40;2.60;99.90
5164;DHT22;2601;50.224;10.126;2022-12-07T18:39:10;2.60;99.90
5164;DHT22;2601;50.224;10.126;2022-12-07T18:41:38;2.50;99.90
5164;DHT22;2601;50.224;10.126;2022-12-07T18:44:05;2.60;99.90
5164;DHT22;2601;50.224;10.126;2022-12-07T18:46:31;2.60;99.90
5164;DHT22;2601;50.224;10.126;2022-12-07T18:48:57;2.50;99.90
5164;DHT22;2601;50.224;10.126;2022-12-07T18:51:23;2.50;99.90
5164;DHT22;2601;50.224;10.126;2022-12-07T18:53:49;2.50;99.90
5164;DHT22;2601;50.224;10.126;2022-12-07T18:56:23;2.50;99.90
5164;DHT22;2601;50.224;10.126;2022-12-07T18:58:51;2.50;99.90
5164;DHT22;2601;50.224;10.126;2022-12-07T19:01:36;2.50;99.90
5164;DHT22;2601;50.224;10.126;2022-12-07T19:04:02;2.50;99.90
5164;DHT22;2601;50.224;10.126;2022-12-07T19:06:28;2.50;99.90
5164;DHT22;2601;50.224;10.126;2022-12-07T19:08:54;2.40;99.90
5164;DHT22;2601;50.224;10.126;2022-12-07T19:11:23;2.50;99.90
5164;DHT22;2601;50.224;10.126;2022-12-07T19:14:08;2.50;99.90
5164;DHT22;2601;50.224;10.126;2022-12-07T19:16:33;2.40;99.90
5164;DHT22;2601;50.224;10.126;2022-12-07T19:18:59;2.40;99.90
5164;DHT22;2601;50.224;10.126;2022-12-07T19:21:25;2.40;99.90
5164;DHT22;2601;50.224;10.126;2022-12-07T19:23:51;2.40;99.90
5164;DHT22;2601;50.224;10.126;2022-12-07T19:26:17;2.40;99.90
5164;DHT22;2601;50.224;10.126;2022-12-07T19:28:43;2.40;99.90
5164;DHT22;2601;50.224;10.126;2022-12-07T19:31:09;2.40;99.90
5164;DHT22;2601;50.224;10.126;2022-12-07T19:33:38;2.40;99.90
5164;DHT22;2601;50.224;10.126;2022-12-07T19:36:05;2.40;99.90
5164;DHT22;2601;50.224;10.126;2022-12-07T19:38:31;2.50;99.90
5164;DHT22;2601;50.224;10.126;2022-12-07T19:41:08;2.50;99.90
5164;DHT22;2601;50.224;10.126;2022-12-07T19:44:02;2.50;99.90
5164;DHT22;2601;50.224;10.126;2022-12-07T19:46:28;2.50;99.90
5164;DHT22;2601;50.224;10.126;2022-12-07T19:48:54;2.60;99.90
5164;DHT22;2601;50.224;10.126;2022-12-07T19:51:20;2.60;99.90
5164;DHT22;2601;50.224;10.126;2022-12-07T19:53:46;2.60;99.90
5164;DHT22;2601;50.224;10.126;2022-12-07T19:56:16;2.70;99.90
5164;DHT22;2601;50.224;10.126;2022-12-07T19:58:42;2.70;99.90
5164;DHT22;2601;50.224;10.126;2022-12-07T20:01:08;2.70;99.90
5164;DHT22;2601;50.224;10.126;2022-12-07T20:03:34;2.60;99.90
5164;DHT22;2601;50.224;10.126;2022-12-07T20:06:00;2.60;99.90
5164;DHT22;2601;50.224;10.126;2022-12-07T20:08:26;2.60;99.90
5164;DHT22;2601;50.224;10.126;2022-12-07T20:10:52;2.60;99.90
5164;DHT22;2601;50.224;10.126;2022-12-07T20:13:19;2.70;99.90
5164;DHT22;2601;50.224;10.126;2022-12-07T20:15:57;2.60;99.90
5164;DHT22;2601;50.224;10.126;2022-12-07T20:18:26;2.60;99.90
5164;DHT22;2601;50.224;10.126;2022-12-07T20:20:57;2.60;99.90
5164;DHT22;2601;50.224;10.126;2022-12-07T20:23:27;2.60;99.90
5164;DHT22;2601;50.224;10.126;2022-12-07T20:25:53;2.60;99.90
5164;DHT22;2601;50.224;10.126;2022-12-07T20:28:19;2.50;99.90
5164;DHT22;2601;50.224;10.126;2022-12-07T20:30:52;2.60;99.90
5164;DHT22;2601;50.224;10.126;2022-12-07T20:33:19;2.60;99.90
5164;DHT22;2601;50.224;10.126;2022-12-07T20:35:45;2.60;99.90
5164;DHT22;2601;50.224;10.126;2022-12-07T20:38:12;2.60;99.90
5164;DHT22;2601;50.224;10.126;2022-12-07T20:40:44;2.60;99.90
5164;DHT22;2601;50.224;10.126;2022-12-07T20:43:10;2.60;99.90
